sensor_id;sensor_type;location;lat;lon;timestamp;P1;durP1;ratioP1;P2;durP2;ratioP2
18286;SDS011;9269;50.838;12.094;2023-07-20T00:00:54;5.67;;;4.30;;
18286;SDS011;9269;50.838;12.094;2023-07-20T00:03:24;6.97;;;4.70;;
18286;SDS011;9269;50.838;12.094;2023-07-20T00:05:53;6.03;;;4.20;;
18286;SDS011;9269;50.838;12.094;2023-07-20T00:08:21;5.13;;;4.30;;
18286;SDS011;9269;50.838;12.094;2023-07-20T00:10:57;6.27;;;4.07;;
18286;SDS011;9269;50.838;12.094;2023-07-20T00:13:27;4.87;;;3.80;;
18286;SDS011;9269;50.838;12.094;2023-07-20T00:15:57;4.93;;;3.40;;
18286;SDS011;9269;50.838;12.094;2023-07-20T00:18:37;4.73;;;3.70;;
18286;SDS011;9269;50.838;12.094;2023-07-20T00:21:06;3.83;;;3.37;;
18286;SDS011;9269;50.838;12.094;2023-07-20T00:23:35;4.10;;;3.30;;
18286;SDS011;9269;50.838;12.094;2023-07-20T00:26:09;4.53;;;3.73;;
18286;SDS011;9269;50.838;12.094;2023-07-20T00:28:40;3.67;;;3.37;;
18286;SDS011;9269;50.838;12.094;2023-07-20T00:31:10;4.13;;;3.20;;
18286;SDS011;9269;50.838;12.094;2023-07-20T00:33:43;3.20;;;2.97;;
18286;SDS011;9269;50.838;12.094;2023-07-20T00:36:12;3.50;;;3.20;;
18286;SDS011;9269;50.838;12.094;2023-07-20T00:38:43;4.53;;;3.40;;
18286;SDS011;9269;50.838;12.094;2023-07-20T00:41:15;3.10;;;2.87;;
18286;SDS011;9269;50.838;12.094;2023-07-20T00:43:46;3.23;;;2.93;;
18286;SDS011;9269;50.838;12.094;2023-07-20T00:46:16;3.40;;;3.00;;
18286;SDS011;9269;50.838;12.094;2023-07-20T00:48:45;3.30;;;3.00;;
18286;SDS011;9269;50.838;12.094;2023-07-20T00:51:16;2.90;;;2.70;;
18286;SDS011;9269;50.838;12.094;2023-07-20T00:53:46;3.63;;;3.30;;
18286;SDS011;9269;50.838;12.094;2023-07-20T00:56:22;5.97;;;3.03;;
18286;SDS011;9269;50.838;12.094;2023-07-20T00:58:53;3.27;;;3.00;;
18286;SDS011;9269;50.838;12.094;2023-07-20T01:01:29;5.30;;;3.70;;
18286;SDS011;9269;50.838;12.094;2023-07-20T01:03:57;4.23;;;3.83;;
18286;SDS011;9269;50.838;12.094;2023-07-20T01:06:29;5.03;;;3.50;;
18286;SDS011;9269;50.838;12.094;2023-07-20T01:09:24;5.07;;;3.47;;
18286;SDS011;9269;50.838;12.094;2023-07-20T01:12:07;4.83;;;3.80;;
18286;SDS011;9269;50.838;12.094;2023-07-20T01:14:42;4.97;;;4.30;;
18286;SDS011;9269;50.838;12.094;2023-07-20T01:17:14;4.10;;;3.70;;
18286;SDS011;9269;50.838;12.094;2023-07-20T01:19:43;5.17;;;3.67;;
18286;SDS011;9269;50.838;12.094;2023-07-20T01:22:16;4.67;;;3.67;;
18286;SDS011;9269;50.838;12.094;2023-07-20T01:25:02;4.10;;;3.80;;
18286;SDS011;9269;50.838;12.094;2023-07-20T01:31:18;5.93;;;3.67;;
18286;SDS011;9269;50.838;12.094;2023-07-20T01:34:11;5.03;;;3.70;;
18286;SDS011;9269;50.838;12.094;2023-07-20T01:37:02;4.73;;;3.67;;
18286;SDS011;9269;50.838;12.094;2023-07-20T01:39:52;4.67;;;3.40;;
18286;SDS011;9269;50.838;12.094;2023-07-20T01:42:28;4.63;;;4.23;;
18286;SDS011;9269;50.838;12.094;2023-07-20T01:45:03;5.80;;;3.60;;
18286;SDS011;9269;50.838;12.094;2023-07-20T01:47:36;6.27;;;4.67;;
18286;SDS011;9269;50.838;12.094;2023-07-20T01:50:06;7.23;;;4.80;;
18286;SDS011;9269;50.838;12.094;2023-07-20T01:52:37;5.33;;;4.67;;
18286;SDS011;9269;50.838;12.094;2023-07-20T01:55:16;6.37;;;5.53;;
18286;SDS011;9269;50.838;12.094;2023-07-20T01:57:45;5.33;;;4.80;;
18286;SDS011;9269;50.838;12.094;2023-07-20T02:00:14;6.83;;;4.60;;
18286;SDS011;9269;50.838;12.094;2023-07-20T02:02:44;4.93;;;4.10;;
18286;SDS011;9269;50.838;12.094;2023-07-20T02:05:12;5.63;;;4.27;;
18286;SDS011;9269;50.838;12.094;2023-07-20T02:07:41;5.83;;;4.17;;
18286;SDS011;9269;50.838;12.094;2023-07-20T02:10:10;6.10;;;4.43;;
18286;SDS011;9269;50.838;12.094;2023-07-20T02:12:38;5.37;;;4.40;;
18286;SDS011;9269;50.838;12.094;2023-07-20T02:15:07;6.83;;;4.43;;
18286;SDS011;9269;50.838;12.094;2023-07-20T02:17:37;5.50;;;4.10;;
18286;SDS011;9269;50.838;12.094;2023-07-20T02:20:10;5.67;;;4.80;;
18286;SDS011;9269;50.838;12.094;2023-07-20T02:22:39;6.27;;;5.67;;
18286;SDS011;9269;50.838;12.094;2023-07-20T02:25:08;6.27;;;5.00;;
18286;SDS011;9269;50.838;12.094;2023-07-20T02:27:37;8.13;;;7.33;;
18286;SDS011;9269;50.838;12.094;2023-07-20T02:30:07;7.70;;;6.13;;
18286;SDS011;9269;50.838;12.094;2023-07-20T02:32:36;8.67;;;6.53;;
18286;SDS011;9269;50.838;12.094;2023-07-20T02:35:06;8.30;;;6.57;;
18286;SDS011;9269;50.838;12.094;2023-07-20T02:37:36;7.13;;;6.43;;
18286;SDS011;9269;50.838;12.094;2023-07-20T02:40:05;7.63;;;6.83;;
18286;SDS011;9269;50.838;12.094;2023-07-20T02:42:35;7.47;;;6.63;;
18286;SDS011;9269;50.838;12.094;2023-07-20T02:45:04;8.30;;;5.97;;
18286;SDS011;9269;50.838;12.094;2023-07-20T02:47:34;6.60;;;5.97;;
18286;SDS011;9269;50.838;12.094;2023-07-20T02:50:03;6.27;;;5.77;;
18286;SDS011;9269;50.838;12.094;2023-07-20T02:52:33;9.07;;;5.53;;
18286;SDS011;9269;50.838;12.094;2023-07-20T02:55:04;6.33;;;5.67;;
18286;SDS011;9269;50.838;12.094;2023-07-20T02:57:33;6.13;;;5.53;;
18286;SDS011;9269;50.838;12.094;2023-07-20T03:00:02;5.87;;;5.27;;
18286;SDS011;9269;50.838;12.094;2023-07-20T03:02:32;6.47;;;5.87;;
18286;SDS011;9269;50.838;12.094;2023-07-20T03:05:01;5.47;;;4.97;;
18286;SDS011;9269;50.838;12.094;2023-07-20T03:07:32;6.90;;;5.00;;
18286;SDS011;9269;50.838;12.094;2023-07-20T03:10:00;6.33;;;4.33;;
18286;SDS011;9269;50.838;12.094;2023-07-20T03:12:32;5.80;;;5.07;;
18286;SDS011;9269;50.838;12.094;2023-07-20T03:15:03;6.43;;;5.80;;
18286;SDS011;9269;50.838;12.094;2023-07-20T03:17:32;5.83;;;4.83;;
18286;SDS011;9269;50.838;12.094;2023-07-20T03:20:00;4.60;;;4.23;;
18286;SDS011;9269;50.838;12.094;2023-07-20T03:22:30;4.60;;;4.20;;
18286;SDS011;9269;50.838;12.094;2023-07-20T03:24:58;4.70;;;4.30;;
18286;SDS011;9269;50.838;12.094;2023-07-20T03:27:28;5.30;;;4.20;;
18286;SDS011;9269;50.838;12.094;2023-07-20T03:29:58;5.57;;;4.80;;
18286;SDS011;9269;50.838;12.094;2023-07-20T03:32:26;4.73;;;4.23;;
18286;SDS011;9269;50.838;12.094;2023-07-20T03:34:55;5.07;;;4.40;;
18286;SDS011;9269;50.838;12.094;2023-07-20T03:37:23;4.37;;;4.00;;
18286;SDS011;9269;50.838;12.094;2023-07-20T03:39:52;5.03;;;4.30;;
18286;SDS011;9269;50.838;12.094;2023-07-20T03:42:20;6.57;;;5.40;;
18286;SDS011;9269;50.838;12.094;2023-07-20T03:44:48;7.03;;;4.60;;
18286;SDS011;9269;50.838;12.094;2023-07-20T03:47:18;12.03;;;5.77;;
18286;SDS011;9269;50.838;12.094;2023-07-20T03:49:49;10.77;;;5.20;;
18286;SDS011;9269;50.838;12.094;2023-07-20T03:52:17;9.10;;;6.27;;
18286;SDS011;9269;50.838;12.094;2023-07-20T03:54:45;8.00;;;6.70;;
18286;SDS011;9269;50.838;12.094;2023-07-20T03:57:14;5.83;;;5.23;;
18286;SDS011;9269;50.838;12.094;2023-07-20T03:59:44;6.57;;;5.07;;
18286;SDS011;9269;50.838;12.094;2023-07-20T04:02:13;6.13;;;5.43;;
18286;SDS011;9269;50.838;12.094;2023-07-20T04:04:43;7.20;;;5.30;;
18286;SDS011;9269;50.838;12.094;2023-07-20T04:07:12;6.93;;;5.70;;
18286;SDS011;9269;50.838;12.094;2023-07-20T04:09:40;5.73;;;4.30;;
18286;SDS011;9269;50.838;12.094;2023-07-20T04:12:09;5.53;;;4.50;;
18286;SDS011;9269;50.838;12.094;2023-07-20T04:14:37;5.50;;;4.30;;
18286;SDS011;9269;50.838;12.094;2023-07-20T04:17:06;5.87;;;4.57;;
18286;SDS011;9269;50.838;12.094;2023-07-20T04:19:34;5.00;;;4.50;;
18286;SDS011;9269;50.838;12.094;2023-07-20T04:22:04;4.43;;;3.83;;
18286;SDS011;9269;50.838;12.094;2023-07-20T04:24:33;4.53;;;4.07;;
18286;SDS011;9269;50.838;12.094;2023-07-20T04:27:02;4.87;;;4.43;;
18286;SDS011;9269;50.838;12.094;2023-07-20T04:29:32;4.80;;;4.30;;
18286;SDS011;9269;50.838;12.094;2023-07-20T04:32:01;5.10;;;4.23;;
18286;SDS011;9269;50.838;12.094;2023-07-20T04:34:30;4.93;;;4.20;;
18286;SDS011;9269;50.838;12.094;2023-07-20T04:36:58;5.40;;;3.87;;
18286;SDS011;9269;50.838;12.094;2023-07-20T04:39:28;4.60;;;3.90;;
18286;SDS011;9269;50.838;12.094;2023-07-20T04:41:58;6.83;;;4.40;;
18286;SDS011;9269;50.838;12.094;2023-07-20T04:44:26;8.77;;;4.30;;
18286;SDS011;9269;50.838;12.094;2023-07-20T04:46:55;7.83;;;4.87;;
18286;SDS011;9269;50.838;12.094;2023-07-20T04:49:23;8.27;;;3.90;;
18286;SDS011;9269;50.838;12.094;2023-07-20T04:51:52;4.53;;;3.50;;
18286;SDS011;9269;50.838;12.094;2023-07-20T04:54:22;4.90;;;3.93;;
18286;SDS011;9269;50.838;12.094;2023-07-20T04:56:52;7.00;;;4.07;;
18286;SDS011;9269;50.838;12.094;2023-07-20T04:59:21;5.80;;;4.30;;
18286;SDS011;9269;50.838;12.094;2023-07-20T05:01:49;5.57;;;4.30;;
18286;SDS011;9269;50.838;12.094;2023-07-20T05:04:18;7.50;;;4.93;;
18286;SDS011;9269;50.838;12.094;2023-07-20T05:06:48;5.63;;;3.90;;
18286;SDS011;9269;50.838;12.094;2023-07-20T05:09:17;7.90;;;4.73;;
18286;SDS011;9269;50.838;12.094;2023-07-20T05:11:48;4.53;;;4.10;;
18286;SDS011;9269;50.838;12.094;2023-07-20T05:14:18;5.03;;;4.20;;
18286;SDS011;9269;50.838;12.094;2023-07-20T05:16:47;5.20;;;3.83;;
18286;SDS011;9269;50.838;12.094;2023-07-20T05:19:15;6.63;;;4.77;;
18286;SDS011;9269;50.838;12.094;2023-07-20T05:21:44;7.53;;;4.30;;
18286;SDS011;9269;50.838;12.094;2023-07-20T05:24:12;5.50;;;4.73;;
18286;SDS011;9269;50.838;12.094;2023-07-20T05:26:40;7.03;;;4.43;;
18286;SDS011;9269;50.838;12.094;2023-07-20T05:29:09;7.23;;;4.47;;
18286;SDS011;9269;50.838;12.094;2023-07-20T05:31:39;6.10;;;4.07;;
18286;SDS011;9269;50.838;12.094;2023-07-20T05:34:07;8.53;;;4.30;;
18286;SDS011;9269;50.838;12.094;2023-07-20T05:36:36;4.37;;;3.97;;
18286;SDS011;9269;50.838;12.094;2023-07-20T05:39:04;8.10;;;4.13;;
18286;SDS011;9269;50.838;12.094;2023-07-20T05:41:33;7.60;;;4.20;;
18286;SDS011;9269;50.838;12.094;2023-07-20T05:44:02;6.40;;;4.53;;
18286;SDS011;9269;50.838;12.094;2023-07-20T05:46:34;7.10;;;4.10;;
18286;SDS011;9269;50.838;12.094;2023-07-20T05:49:22;6.47;;;3.90;;
18286;SDS011;9269;50.838;12.094;2023-07-20T05:51:52;6.30;;;3.87;;
18286;SDS011;9269;50.838;12.094;2023-07-20T05:54:21;7.57;;;4.37;;
18286;SDS011;9269;50.838;12.094;2023-07-20T05:56:51;6.83;;;4.50;;
18286;SDS011;9269;50.838;12.094;2023-07-20T05:59:19;7.43;;;4.20;;
18286;SDS011;9269;50.838;12.094;2023-07-20T06:01:48;6.17;;;3.90;;
18286;SDS011;9269;50.838;12.094;2023-07-20T06:04:17;6.83;;;4.53;;
18286;SDS011;9269;50.838;12.094;2023-07-20T06:06:46;12.70;;;5.07;;
18286;SDS011;9269;50.838;12.094;2023-07-20T06:09:15;8.17;;;5.80;;
18286;SDS011;9269;50.838;12.094;2023-07-20T06:11:43;5.73;;;4.50;;
18286;SDS011;9269;50.838;12.094;2023-07-20T06:14:12;5.27;;;4.50;;
18286;SDS011;9269;50.838;12.094;2023-07-20T06:16:41;7.73;;;4.40;;
18286;SDS011;9269;50.838;12.094;2023-07-20T06:19:09;4.90;;;4.17;;
18286;SDS011;9269;50.838;12.094;2023-07-20T06:21:38;6.57;;;4.33;;
18286;SDS011;9269;50.838;12.094;2023-07-20T06:24:08;7.47;;;5.33;;
18286;SDS011;9269;50.838;12.094;2023-07-20T06:26:37;6.20;;;4.47;;
18286;SDS011;9269;50.838;12.094;2023-07-20T06:29:06;8.00;;;4.40;;
18286;SDS011;9269;50.838;12.094;2023-07-20T06:31:36;5.53;;;4.20;;
18286;SDS011;9269;50.838;12.094;2023-07-20T06:34:07;6.13;;;5.40;;
18286;SDS011;9269;50.838;12.094;2023-07-20T06:36:36;6.43;;;5.60;;
18286;SDS011;9269;50.838;12.094;2023-07-20T06:39:06;5.77;;;4.07;;
18286;SDS011;9269;50.838;12.094;2023-07-20T06:41:39;4.17;;;3.70;;
18286;SDS011;9269;50.838;12.094;2023-07-20T06:44:08;5.20;;;4.13;;
18286;SDS011;9269;50.838;12.094;2023-07-20T06:46:37;5.47;;;4.27;;
18286;SDS011;9269;50.838;12.094;2023-07-20T06:49:06;4.70;;;3.73;;
18286;SDS011;9269;50.838;12.094;2023-07-20T06:51:39;4.47;;;4.10;;
18286;SDS011;9269;50.838;12.094;2023-07-20T06:54:10;6.13;;;5.33;;
18286;SDS011;9269;50.838;12.094;2023-07-20T06:56:41;4.73;;;4.17;;
18286;SDS011;9269;50.838;12.094;2023-07-20T06:59:12;4.97;;;4.50;;
18286;SDS011;9269;50.838;12.094;2023-07-20T07:01:51;4.90;;;4.40;;
18286;SDS011;9269;50.838;12.094;2023-07-20T07:04:20;4.27;;;3.87;;
18286;SDS011;9269;50.838;12.094;2023-07-20T07:06:49;5.33;;;3.97;;
18286;SDS011;9269;50.838;12.094;2023-07-20T07:09:19;4.83;;;3.90;;
18286;SDS011;9269;50.838;12.094;2023-07-20T07:11:48;4.33;;;3.30;;
18286;SDS011;9269;50.838;12.094;2023-07-20T07:14:17;5.57;;;4.10;;
18286;SDS011;9269;50.838;12.094;2023-07-20T07:16:46;6.07;;;4.60;;
18286;SDS011;9269;50.838;12.094;2023-07-20T07:19:17;5.53;;;4.30;;
18286;SDS011;9269;50.838;12.094;2023-07-20T07:21:46;4.50;;;4.10;;
18286;SDS011;9269;50.838;12.094;2023-07-20T07:24:14;5.07;;;4.10;;
18286;SDS011;9269;50.838;12.094;2023-07-20T07:26:49;5.10;;;4.50;;
18286;SDS011;9269;50.838;12.094;2023-07-20T07:29:18;5.10;;;4.17;;
18286;SDS011;9269;50.838;12.094;2023-07-20T07:31:46;4.97;;;4.40;;
18286;SDS011;9269;50.838;12.094;2023-07-20T07:34:16;4.97;;;4.43;;
18286;SDS011;9269;50.838;12.094;2023-07-20T07:36:44;4.20;;;3.90;;
18286;SDS011;9269;50.838;12.094;2023-07-20T07:39:13;3.93;;;3.53;;
18286;SDS011;9269;50.838;12.094;2023-07-20T07:41:45;3.60;;;3.23;;
18286;SDS011;9269;50.838;12.094;2023-07-20T07:44:15;3.30;;;3.00;;
18286;SDS011;9269;50.838;12.094;2023-07-20T07:46:43;3.50;;;3.20;;
18286;SDS011;9269;50.838;12.094;2023-07-20T07:49:13;3.70;;;3.37;;
18286;SDS011;9269;50.838;12.094;2023-07-20T07:51:41;4.57;;;3.07;;
18286;SDS011;9269;50.838;12.094;2023-07-20T07:54:10;3.00;;;2.80;;
18286;SDS011;9269;50.838;12.094;2023-07-20T07:56:38;2.93;;;2.73;;
18286;SDS011;9269;50.838;12.094;2023-07-20T07:59:07;2.90;;;2.70;;
18286;SDS011;9269;50.838;12.094;2023-07-20T08:01:37;3.53;;;3.23;;
18286;SDS011;9269;50.838;12.094;2023-07-20T08:04:06;3.63;;;3.13;;
18286;SDS011;9269;50.838;12.094;2023-07-20T08:06:38;4.23;;;2.87;;
18286;SDS011;9269;50.838;12.094;2023-07-20T08:09:07;2.20;;;2.00;;
18286;SDS011;9269;50.838;12.094;2023-07-20T08:11:35;5.30;;;3.10;;
18286;SDS011;9269;50.838;12.094;2023-07-20T08:14:07;2.63;;;2.27;;
18286;SDS011;9269;50.838;12.094;2023-07-20T08:16:37;3.10;;;2.80;;
18286;SDS011;9269;50.838;12.094;2023-07-20T08:19:05;3.87;;;2.73;;
18286;SDS011;9269;50.838;12.094;2023-07-20T08:21:34;3.67;;;3.17;;
18286;SDS011;9269;50.838;12.094;2023-07-20T08:24:02;2.50;;;2.30;;
18286;SDS011;9269;50.838;12.094;2023-07-20T08:26:31;3.20;;;2.90;;
18286;SDS011;9269;50.838;12.094;2023-07-20T08:29:02;3.60;;;2.70;;
18286;SDS011;9269;50.838;12.094;2023-07-20T08:31:31;2.30;;;2.10;;
18286;SDS011;9269;50.838;12.094;2023-07-20T08:34:01;2.87;;;2.10;;
18286;SDS011;9269;50.838;12.094;2023-07-20T08:36:42;2.93;;;2.50;;
18286;SDS011;9269;50.838;12.094;2023-07-20T08:39:10;2.47;;;2.10;;
18286;SDS011;9269;50.838;12.094;2023-07-20T08:41:38;2.60;;;2.40;;
18286;SDS011;9269;50.838;12.094;2023-07-20T08:44:09;2.30;;;2.10;;
18286;SDS011;9269;50.838;12.094;2023-07-20T08:46:38;2.63;;;2.07;;
18286;SDS011;9269;50.838;12.094;2023-07-20T08:49:09;2.80;;;2.33;;
18286;SDS011;9269;50.838;12.094;2023-07-20T08:51:38;2.00;;;1.90;;
18286;SDS011;9269;50.838;12.094;2023-07-20T08:54:08;2.73;;;2.20;;
18286;SDS011;9269;50.838;12.094;2023-07-20T08:56:39;2.30;;;2.10;;
18286;SDS011;9269;50.838;12.094;2023-07-20T08:59:09;2.80;;;2.47;;
18286;SDS011;9269;50.838;12.094;2023-07-20T09:01:38;3.40;;;2.37;;
18286;SDS011;9269;50.838;12.094;2023-07-20T09:04:09;2.70;;;2.40;;
18286;SDS011;9269;50.838;12.094;2023-07-20T09:06:39;2.43;;;2.23;;
18286;SDS011;9269;50.838;12.094;2023-07-20T09:09:11;4.27;;;2.97;;
18286;SDS011;9269;50.838;12.094;2023-07-20T09:11:40;3.00;;;2.43;;
18286;SDS011;9269;50.838;12.094;2023-07-20T09:14:09;2.80;;;2.50;;
18286;SDS011;9269;50.838;12.094;2023-07-20T09:16:47;4.63;;;2.90;;
18286;SDS011;9269;50.838;12.094;2023-07-20T09:19:18;3.07;;;2.80;;
18286;SDS011;9269;50.838;12.094;2023-07-20T09:21:47;2.93;;;2.37;;
18286;SDS011;9269;50.838;12.094;2023-07-20T09:24:17;4.67;;;3.10;;
18286;SDS011;9269;50.838;12.094;2023-07-20T09:26:47;3.40;;;2.80;;
18286;SDS011;9269;50.838;12.094;2023-07-20T09:29:17;3.70;;;2.70;;
18286;SDS011;9269;50.838;12.094;2023-07-20T09:31:58;4.53;;;3.07;;
18286;SDS011;9269;50.838;12.094;2023-07-20T09:34:29;3.33;;;2.63;;
18286;SDS011;9269;50.838;12.094;2023-07-20T09:37:01;2.50;;;2.30;;
18286;SDS011;9269;50.838;12.094;2023-07-20T09:39:31;3.17;;;2.70;;
18286;SDS011;9269;50.838;12.094;2023-07-20T09:42:00;2.87;;;2.63;;
18286;SDS011;9269;50.838;12.094;2023-07-20T09:44:34;3.13;;;2.40;;
18286;SDS011;9269;50.838;12.094;2023-07-20T09:47:05;3.03;;;2.70;;
18286;SDS011;9269;50.838;12.094;2023-07-20T09:49:40;2.70;;;2.43;;
18286;SDS011;9269;50.838;12.094;2023-07-20T09:52:11;3.33;;;2.57;;
18286;SDS011;9269;50.838;12.094;2023-07-20T09:54:40;2.50;;;2.20;;
18286;SDS011;9269;50.838;12.094;2023-07-20T09:57:12;2.37;;;2.20;;
18286;SDS011;9269;50.838;12.094;2023-07-20T09:59:41;2.30;;;2.20;;
18286;SDS011;9269;50.838;12.094;2023-07-20T10:02:12;2.43;;;2.23;;
18286;SDS011;9269;50.838;12.094;2023-07-20T10:04:50;3.77;;;2.20;;
18286;SDS011;9269;50.838;12.094;2023-07-20T10:07:21;2.93;;;1.90;;
18286;SDS011;9269;50.838;12.094;2023-07-20T10:09:52;3.90;;;2.17;;
18286;SDS011;9269;50.838;12.094;2023-07-20T10:12:23;2.20;;;2.10;;
18286;SDS011;9269;50.838;12.094;2023-07-20T10:14:56;2.00;;;1.90;;
18286;SDS011;9269;50.838;12.094;2023-07-20T10:17:33;2.33;;;2.10;;
18286;SDS011;9269;50.838;12.094;2023-07-20T10:20:06;2.77;;;2.57;;
18286;SDS011;9269;50.838;12.094;2023-07-20T10:22:37;2.67;;;2.13;;
18286;SDS011;9269;50.838;12.094;2023-07-20T10:25:08;2.20;;;2.10;;
18286;SDS011;9269;50.838;12.094;2023-07-20T10:27:37;2.40;;;2.20;;
18286;SDS011;9269;50.838;12.094;2023-07-20T10:30:07;2.40;;;2.20;;
18286;SDS011;9269;50.838;12.094;2023-07-20T10:32:36;2.47;;;2.20;;
18286;SDS011;9269;50.838;12.094;2023-07-20T10:35:13;2.80;;;2.60;;
18286;SDS011;9269;50.838;12.094;2023-07-20T10:37:46;2.47;;;2.27;;
18286;SDS011;9269;50.838;12.094;2023-07-20T10:40:25;3.57;;;2.40;;
18286;SDS011;9269;50.838;12.094;2023-07-20T10:43:04;2.30;;;2.10;;
18286;SDS011;9269;50.838;12.094;2023-07-20T10:45:47;2.10;;;1.97;;
18286;SDS011;9269;50.838;12.094;2023-07-20T10:48:18;2.70;;;2.50;;
18286;SDS011;9269;50.838;12.094;2023-07-20T10:53:39;2.37;;;2.27;;
18286;SDS011;9269;50.838;12.094;2023-07-20T10:56:11;2.63;;;2.43;;
18286;SDS011;9269;50.838;12.094;2023-07-20T10:58:40;3.73;;;2.50;;
18286;SDS011;9269;50.838;12.094;2023-07-20T11:01:11;7.20;;;3.17;;
18286;SDS011;9269;50.838;12.094;2023-07-20T11:03:42;6.87;;;3.33;;
18286;SDS011;9269;50.838;12.094;2023-07-20T11:06:30;4.63;;;3.50;;
18286;SDS011;9269;50.838;12.094;2023-07-20T11:09:06;5.03;;;3.40;;
18286;SDS011;9269;50.838;12.094;2023-07-20T11:11:39;3.60;;;3.30;;
18286;SDS011;9269;50.838;12.094;2023-07-20T11:14:20;4.77;;;3.87;;
18286;SDS011;9269;50.838;12.094;2023-07-20T11:16:54;4.00;;;3.70;;
18286;SDS011;9269;50.838;12.094;2023-07-20T11:19:40;4.10;;;3.80;;
18286;SDS011;9269;50.838;12.094;2023-07-20T11:22:13;4.47;;;4.03;;
18286;SDS011;9269;50.838;12.094;2023-07-20T11:24:45;4.63;;;4.23;;
18286;SDS011;9269;50.838;12.094;2023-07-20T11:27:15;4.67;;;4.27;;
18286;SDS011;9269;50.838;12.094;2023-07-20T11:29:45;4.80;;;4.30;;
18286;SDS011;9269;50.838;12.094;2023-07-20T11:32:19;4.07;;;3.77;;
18286;SDS011;9269;50.838;12.094;2023-07-20T11:34:49;4.23;;;3.83;;
18286;SDS011;9269;50.838;12.094;2023-07-20T11:37:19;4.00;;;3.70;;
18286;SDS011;9269;50.838;12.094;2023-07-20T11:39:48;4.07;;;3.67;;
18286;SDS011;9269;50.838;12.094;2023-07-20T11:42:17;5.03;;;4.23;;
18286;SDS011;9269;50.838;12.094;2023-07-20T11:44:51;3.63;;;3.33;;
18286;SDS011;9269;50.838;12.094;2023-07-20T11:47:20;3.57;;;3.37;;
18286;SDS011;9269;50.838;12.094;2023-07-20T11:49:48;3.40;;;3.10;;
18286;SDS011;9269;50.838;12.094;2023-07-20T11:52:23;3.00;;;2.80;;
18286;SDS011;9269;50.838;12.094;2023-07-20T11:54:52;3.63;;;3.00;;
18286;SDS011;9269;50.838;12.094;2023-07-20T11:57:20;3.20;;;3.00;;
18286;SDS011;9269;50.838;12.094;2023-07-20T11:59:52;3.20;;;3.00;;
18286;SDS011;9269;50.838;12.094;2023-07-20T12:02:26;3.00;;;2.70;;
18286;SDS011;9269;50.838;12.094;2023-07-20T12:04:55;2.80;;;2.40;;
18286;SDS011;9269;50.838;12.094;2023-07-20T12:07:27;2.83;;;2.50;;
18286;SDS011;9269;50.838;12.094;2023-07-20T12:10:02;2.10;;;1.90;;
18286;SDS011;9269;50.838;12.094;2023-07-20T12:12:32;2.40;;;2.20;;
18286;SDS011;9269;50.838;12.094;2023-07-20T12:15:13;1.70;;;1.60;;
18286;SDS011;9269;50.838;12.094;2023-07-20T12:17:45;1.60;;;1.50;;
18286;SDS011;9269;50.838;12.094;2023-07-20T12:20:24;1.10;;;1.10;;
18286;SDS011;9269;50.838;12.094;2023-07-20T12:22:58;0.80;;;0.80;;
18286;SDS011;9269;50.838;12.094;2023-07-20T12:25:32;1.20;;;1.20;;
18286;SDS011;9269;50.838;12.094;2023-07-20T12:28:04;1.30;;;1.20;;
18286;SDS011;9269;50.838;12.094;2023-07-20T12:30:33;2.03;;;1.30;;
18286;SDS011;9269;50.838;12.094;2023-07-20T12:33:03;0.90;;;0.90;;
18286;SDS011;9269;50.838;12.094;2023-07-20T12:35:33;1.10;;;1.10;;
18286;SDS011;9269;50.838;12.094;2023-07-20T12:38:03;1.20;;;1.10;;
18286;SDS011;9269;50.838;12.094;2023-07-20T12:40:33;1.20;;;1.13;;
18286;SDS011;9269;50.838;12.094;2023-07-20T12:43:03;1.17;;;1.17;;
18286;SDS011;9269;50.838;12.094;2023-07-20T12:45:31;1.20;;;1.20;;
18286;SDS011;9269;50.838;12.094;2023-07-20T12:48:00;1.10;;;1.10;;
18286;SDS011;9269;50.838;12.094;2023-07-20T12:50:28;1.20;;;1.10;;
18286;SDS011;9269;50.838;12.094;2023-07-20T12:52:58;1.20;;;1.20;;
18286;SDS011;9269;50.838;12.094;2023-07-20T12:55:31;1.20;;;1.07;;
18286;SDS011;9269;50.838;12.094;2023-07-20T12:58:00;1.13;;;1.10;;
18286;SDS011;9269;50.838;12.094;2023-07-20T13:00:29;1.60;;;1.50;;
18286;SDS011;9269;50.838;12.094;2023-07-20T13:03:01;1.10;;;1.10;;
18286;SDS011;9269;50.838;12.094;2023-07-20T13:05:35;1.20;;;1.20;;
18286;SDS011;9269;50.838;12.094;2023-07-20T13:08:07;1.87;;;1.50;;
18286;SDS011;9269;50.838;12.094;2023-07-20T13:10:39;1.60;;;1.50;;
18286;SDS011;9269;50.838;12.094;2023-07-20T13:13:09;1.60;;;1.50;;
18286;SDS011;9269;50.838;12.094;2023-07-20T13:15:41;1.20;;;1.20;;
18286;SDS011;9269;50.838;12.094;2023-07-20T13:18:10;1.50;;;1.40;;
18286;SDS011;9269;50.838;12.094;2023-07-20T13:20:40;1.30;;;1.20;;
18286;SDS011;9269;50.838;12.094;2023-07-20T13:23:08;1.67;;;1.23;;
18286;SDS011;9269;50.838;12.094;2023-07-20T13:25:37;1.50;;;1.40;;
18286;SDS011;9269;50.838;12.094;2023-07-20T13:28:08;1.47;;;1.33;;
18286;SDS011;9269;50.838;12.094;2023-07-20T13:30:36;1.27;;;1.27;;
18286;SDS011;9269;50.838;12.094;2023-07-20T13:33:08;1.40;;;1.30;;
18286;SDS011;9269;50.838;12.094;2023-07-20T13:35:43;1.83;;;1.20;;
18286;SDS011;9269;50.838;12.094;2023-07-20T13:38:15;1.30;;;1.30;;
18286;SDS011;9269;50.838;12.094;2023-07-20T13:40:45;1.37;;;1.37;;
18286;SDS011;9269;50.838;12.094;2023-07-20T13:43:15;1.53;;;1.43;;
18286;SDS011;9269;50.838;12.094;2023-07-20T13:45:43;1.40;;;1.30;;
18286;SDS011;9269;50.838;12.094;2023-07-20T13:48:11;1.13;;;1.10;;
18286;SDS011;9269;50.838;12.094;2023-07-20T13:50:44;1.27;;;1.17;;
18286;SDS011;9269;50.838;12.094;2023-07-20T13:53:27;1.40;;;1.20;;
18286;SDS011;9269;50.838;12.094;2023-07-20T13:55:58;1.17;;;1.17;;
18286;SDS011;9269;50.838;12.094;2023-07-20T13:58:31;1.30;;;1.20;;
18286;SDS011;9269;50.838;12.094;2023-07-20T14:01:00;1.50;;;1.23;;
18286;SDS011;9269;50.838;12.094;2023-07-20T14:03:28;1.37;;;1.37;;
18286;SDS011;9269;50.838;12.094;2023-07-20T14:05:57;1.00;;;1.00;;
18286;SDS011;9269;50.838;12.094;2023-07-20T14:08:31;1.40;;;1.30;;
18286;SDS011;9269;50.838;12.094;2023-07-20T14:11:00;2.03;;;1.60;;
18286;SDS011;9269;50.838;12.094;2023-07-20T14:13:34;1.27;;;1.20;;
18286;SDS011;9269;50.838;12.094;2023-07-20T14:16:16;2.10;;;1.50;;
18286;SDS011;9269;50.838;12.094;2023-07-20T14:18:46;1.37;;;1.30;;
18286;SDS011;9269;50.838;12.094;2023-07-20T14:21:18;1.37;;;1.27;;
18286;SDS011;9269;50.838;12.094;2023-07-20T14:23:50;1.53;;;1.03;;
18286;SDS011;9269;50.838;12.094;2023-07-20T14:26:29;1.50;;;1.40;;
18286;SDS011;9269;50.838;12.094;2023-07-20T14:29:01;1.30;;;1.20;;
18286;SDS011;9269;50.838;12.094;2023-07-20T14:31:30;1.17;;;1.17;;
18286;SDS011;9269;50.838;12.094;2023-07-20T14:33:59;1.40;;;1.30;;
18286;SDS011;9269;50.838;12.094;2023-07-20T14:36:33;1.30;;;1.30;;
18286;SDS011;9269;50.838;12.094;2023-07-20T14:39:02;1.13;;;1.10;;
18286;SDS011;9269;50.838;12.094;2023-07-20T14:41:33;1.27;;;1.27;;
18286;SDS011;9269;50.838;12.094;2023-07-20T14:44:03;1.00;;;1.00;;
18286;SDS011;9269;50.838;12.094;2023-07-20T14:46:32;1.43;;;1.20;;
18286;SDS011;9269;50.838;12.094;2023-07-20T14:49:01;1.30;;;1.20;;
18286;SDS011;9269;50.838;12.094;2023-07-20T14:51:32;2.10;;;1.50;;
18286;SDS011;9269;50.838;12.094;2023-07-20T14:54:05;1.27;;;1.07;;
18286;SDS011;9269;50.838;12.094;2023-07-20T14:56:34;1.30;;;1.30;;
18286;SDS011;9269;50.838;12.094;2023-07-20T14:59:06;1.60;;;1.50;;
18286;SDS011;9269;50.838;12.094;2023-07-20T15:01:38;1.93;;;1.83;;
18286;SDS011;9269;50.838;12.094;2023-07-20T15:04:08;1.20;;;1.20;;
18286;SDS011;9269;50.838;12.094;2023-07-20T15:06:38;1.67;;;1.57;;
18286;SDS011;9269;50.838;12.094;2023-07-20T15:09:08;1.27;;;1.17;;
18286;SDS011;9269;50.838;12.094;2023-07-20T15:11:38;1.10;;;1.10;;
18286;SDS011;9269;50.838;12.094;2023-07-20T15:14:10;1.27;;;1.00;;
18286;SDS011;9269;50.838;12.094;2023-07-20T15:16:39;1.60;;;1.20;;